Latest Coastal Weather Observations for Cape Grim

IDV60701

Issued at 11:01 pm EST Friday 6 May 2016 (issued every 10 minutes, with the page automatically refreshed every 10 minutes)

About coastal observations | Map of coastal stations | Coastal observations for VIC | Marine services | Other Formats
Station Details ID: 091331 Name: CAPE GRIM Lat: -40.68 Lon: 144.69 Height: 86.0 m
Data from the previous 72 hours. | See also: Recent months at Cape Grim
Date/Time
EST
Temp

°C
Wind Pressure Rain
since 9am
mm
Weather Cloud Vis
km
Sea
Height
m
Swell
Dir
 
Speed
knots
Gust
knots
hPa Trend Height
m
Period
s
Dir
06/11:00pm 13.7 NW 10 14 1016.2 - 0.0 - - - - - - -
06/10:30pm 13.9 NW 9 13 1016.1 - 0.0 - - - - - - -
06/10:00pm 13.7 NW 11 14 1016.2 - 0.0 - - - - - - -
06/09:30pm 13.7 WNW 10 14 1016.2 - 0.0 - - - - - - -
06/09:00pm 13.9 WNW 11 15 1015.8 - 0.0 - - - - - - -
06/08:30pm 13.5 WNW 10 13 1015.7 - 0.0 - - - - - - -
06/08:00pm 13.7 WNW 12 14 1015.4 - 0.0 - - - - - - -
06/07:30pm 13.5 WNW 11 14 1015.2 - 0.0 - - - - - - -
06/07:00pm 13.9 W 13 17 1014.9 - 0.0 - - - - - - -
06/06:30pm 13.9 W 14 19 1014.8 - 0.0 - - - - - - -
06/06:00pm 13.7 W 15 20 1014.3 - 0.0 - - - - - - -
06/05:30pm 13.7 WNW 14 18 1014.0 - 0.0 - - - - - - -
06/05:00pm 14.4 W 14 20 1013.7 - 0.0 - - - - - - -
06/04:30pm 14.5 W 14 18 1013.7 - 0.0 - - - - - - -
06/04:00pm 14.8 W 14 17 1013.6 - 0.0 - - - - - - -
06/03:30pm 15.4 WNW 11 14 1013.2 - 0.0 - - - - - - -
06/03:00pm 14.7 W 11 16 1013.1 - 0.0 - - - - - - -
06/02:30pm 15.2 W 12 17 1013.1 - 0.0 - - - - - - -
06/02:00pm 15.0 W 16 21 1013.0 - 0.0 - - - - - - -
06/01:30pm 15.6 W 14 20 1012.8 - 0.0 - - - - - - -
06/01:00pm 15.0 W 15 19 1012.9 - 0.0 - - - - - - -
06/12:30pm 15.5 W 16 21 1013.0 - 0.0 - - - - - - -
06/12:00pm 15.3 W 16 22 1013.1 - 0.0 - - - - - - -
06/11:30am 15.5 WNW 14 19 1013.2 - 0.0 - - - - - - -
06/11:00am 14.6 WNW 17 25 1013.2 - 0.0 - - - - - - -
06/10:30am 15.9 NW 13 19 1012.9 - 0.0 - - - - - - -
06/10:00am 15.5 WNW 15 19 1012.8 - 0.0 - - - - - - -
06/09:30am 15.0 WNW 15 19 1012.7 - 0.0 - - - - - - -
06/09:00am 14.7 WNW 15 19 1012.7 - 4.2 - - - - - - -
06/08:30am 14.5 WNW 13 17 1012.2 - 4.2 - - - - - - -
06/08:00am 14.4 WNW 14 17 1011.8 - 4.2 - - - - - - -
06/07:30am 14.2 W 14 18 1011.5 - 4.2 - - - - - - -
06/07:00am 14.2 W 15 19 1011.0 - 4.2 - - - - - - -
06/06:30am 14.2 W 15 21 1010.6 - 4.2 - - - - - - -
06/06:00am 14.1 W 12 18 1010.3 - 4.2 - - - - - - -
06/05:30am 13.8 W 12 18 1009.9 - 4.2 - - - - - - -
06/05:00am 13.1 W 14 21 1009.6 - 4.2 - - - - - - -
06/04:31am 13.0 WSW 15 26 1009.2 - 4.2 - - - - - - -
06/04:30am 13.1 WSW 14 24 1009.2 - 4.2 - - - - - - -
06/04:00am 13.6 WSW 13 24 1008.8 - 3.8 - - - - - - -
06/03:30am 14.3 W 18 24 1008.4 - 3.6 - - - - - - -
06/03:00am 14.6 W 17 22 1008.3 - 3.4 Recent precip. - - - - - -
06/02:30am 14.8 W 18 23 1008.0 - 3.2 - - - - - - -
06/02:12am 15.4 WNW 26 35 1007.9 - 3.0 - - - - - - -
06/02:00am 16.1 WNW 31 41 1007.4 - 2.8 - - - - - - -
06/01:30am 16.2 WNW 26 36 1007.5 - 2.2 - - - - - - -
06/01:00am 16.0 NW 25 40 1007.5 - 1.6 - - - - - - -
06/12:51am 16.8 NNW 25 35 1007.6 - 0.0 - - - - - - -
06/12:30am 17.0 NNW 26 31 1007.3 - 0.0 - - - - - - -
06/12:00am 17.0 NNW 25 31 1007.3 - 0.0 - - - - - - -
 
Date/Time
EST
Temp

°C
Wind Pressure Rain
since 9am
mm
Weather Cloud Vis
km
Sea
Height
m
Swell
Dir
 
Speed
knots
Gust
knots
hPa Trend Height
m
Period
s
Dir
05/11:30pm 17.3 NNW 27 31 1007.4 - 0.0 - - - - - - -
05/11:00pm 17.1 NNW 26 32 1007.5 - 0.0 - - - - - - -
05/10:30pm 17.6 NNW 25 32 1007.4 - 0.0 - - - - - - -
05/10:00pm 17.2 NNW 23 29 1007.5 - 0.0 - - - - - - -
05/09:47pm 17.3 NNW 22 32 1007.8 - 0.0 - - - - - - -
05/09:30pm 17.2 NNW 22 29 1007.9 - 0.0 - - - - - - -
05/09:00pm 17.0 NNW 21 29 1008.0 - 0.0 - - - - - - -
05/08:30pm 17.1 NNW 24 31 1008.1 - 0.0 - - - - - - -
05/08:06pm 17.1 NNW 22 32 1008.0 - 0.0 - - - - - - -
05/08:00pm 17.0 NNW 22 27 1008.0 - 0.0 - - - - - - -
05/07:30pm 16.4 NNW 19 25 1008.3 - 0.0 - - - - - - -
05/07:00pm 16.2 N 19 24 1008.1 - 0.0 - - - - - - -
05/06:30pm 16.4 NNW 19 25 1008.2 - 0.0 - - - - - - -
05/06:00pm 16.4 NNW 20 25 1008.0 - 0.0 - - - - - - -
05/05:30pm 16.5 NNW 19 25 1007.9 - 0.0 - - - - - - -
05/05:00pm 16.5 NNW 18 23 1008.0 - 0.0 - - - - - - -
05/04:30pm 16.6 NNW 21 27 1008.0 - 0.0 - - - - - - -
05/04:00pm 16.5 NNW 21 26 1007.9 - 0.0 - - - - - - -
05/03:30pm 16.5 NNW 21 26 1008.1 - 0.0 - - - - - - -
05/03:00pm 16.7 NNW 23 33 1008.1 - 0.0 - - - - - - -
05/02:30pm 16.8 NNW 26 31 1008.2 - 0.0 - - - - - - -
05/02:00pm 16.5 NNW 20 25 1008.4 - 0.0 - - - - - - -
05/01:30pm 16.9 NNW 23 35 1008.5 - 0.0 - - - - - - -
05/01:23pm 17.0 NNW 25 35 1008.8 - 0.0 - - - - - - -
05/01:00pm 16.6 NNW 26 32 1008.9 - 0.0 - - - - - - -
05/12:38pm 16.6 NNW 25 35 1009.1 - 0.0 - - - - - - -
05/12:30pm 16.5 NNW 29 35 1009.2 - 0.0 - - - - - - -
05/12:00pm 16.5 NNW 26 31 1009.6 - 0.0 - - - - - - -
05/11:30am 16.9 NNW 23 33 1010.0 - 0.0 - - - - - - -
05/11:29am 16.8 NNW 23 33 1010.0 - 0.0 - - - - - - -
05/11:00am 16.7 NNW 23 29 1010.4 - 0.0 - - - - - - -
05/10:30am 17.1 NNW 22 30 1010.5 - 0.0 - - - - - - -
05/10:00am 16.2 NNW 24 33 1010.7 - 0.0 - - - - - - -
05/09:30am 15.8 NW 24 34 1011.0 - 0.0 - - - - - - -
05/09:18am 15.7 NW 27 37 1011.0 - 0.0 - - - - - - -
05/09:00am 15.8 NNW 30 38 1011.0 - 1.0 - - - - - - -
05/08:30am 15.6 NW 27 38 1010.9 - 1.0 - - - - - - -
05/08:26am 15.3 NW 25 36 1011.0 - 1.0 - - - - - - -
05/08:00am 15.2 NNW 29 37 1011.0 - 1.0 - - - - - - -
05/07:30am 15.1 NNW 29 36 1010.6 - 1.0 - - - - - - -
05/07:00am 15.0 NNW 30 39 1010.4 - 1.0 - - - - - - -
05/06:30am 15.2 NW 26 37 1010.4 - 1.0 - - - - - - -
05/06:00am 15.3 NW 27 38 1010.3 - 1.0 - - - - - - -
05/05:30am 15.1 NNW 26 36 1010.4 - 1.0 - - - - - - -
05/05:16am 15.1 NW 27 37 1010.3 - 1.0 - - - - - - -
05/05:00am 15.1 NNW 27 33 1010.4 - 1.0 - - - - - - -
05/04:30am 14.7 NNW 26 34 1010.2 - 1.0 - - - - - - -
05/04:12am 15.0 NW 27 37 1010.1 - 1.0 - - - - - - -
05/04:00am 15.0 NNW 28 37 1010.1 - 1.0 - - - - - - -
05/03:30am 14.9 NW 27 37 1010.1 - 1.0 - - - - - - -
05/03:18am 15.0 NW 27 38 1010.1 - 1.0 - - - - - - -
05/03:00am 14.5 NNW 26 34 1010.3 - 1.0 - - - - - - -
05/02:30am 14.7 NW 25 39 1010.4 - 1.0 - - - - - - -
05/02:06am 14.8 NW 26 36 1010.4 - 1.0 - - - - - - -
05/02:00am 14.6 NNW 27 35 1010.4 - 1.0 - - - - - - -
05/01:38am 14.4 NNW 28 38 1010.5 - 1.0 - - - - - - -
05/01:30am 14.5 NNW 28 35 1010.5 - 1.0 - - - - - - -
05/01:00am 14.3 NW 25 38 1010.7 - 1.0 - - - - - - -
05/12:38am 14.5 NW 28 38 1010.8 - 1.0 - - - - - - -
05/12:30am 14.6 NW 26 34 1010.7 - 1.0 - - - - - - -
05/12:00am 13.9 NW 26 39 1010.8 - 1.0 - - - - - - -
 
Date/Time
EST
Temp

°C
Wind Pressure Rain
since 9am
mm
Weather Cloud Vis
km
Sea
Height
m
Swell
Dir
 
Speed
knots
Gust
knots
hPa Trend Height
m
Period
s
Dir
04/11:46pm 14.4 NNW 30 40 1010.7 - 1.0 - - - - - - -
04/11:30pm 14.6 NNW 28 34 1010.6 - 1.0 - - - - - - -
04/11:00pm 14.4 NNW 25 34 1010.8 - 1.0 - - - - - - -
04/10:32pm 14.3 NW 28 38 1011.0 - 1.0 - - - - - - -
04/10:30pm 14.1 NW 29 38 1011.0 - 1.0 - - - - - - -
04/10:13pm 14.1 NW 25 35 1011.2 - 1.0 - - - - - - -
04/10:00pm 14.0 NW 27 35 1011.1 - 1.0 - - - - - - -
04/09:30pm 13.6 NW 27 38 1011.0 - 1.0 - - - - - - -
04/09:15pm 13.6 NW 25 37 1011.0 - 1.0 - - - - - - -
04/09:00pm 14.0 NW 25 33 1011.0 - 0.6 Recent precip. - - - - - -
04/08:31pm 14.2 NW 27 37 1011.0 - 0.4 - - - - - - -
04/08:30pm 14.1 NW 28 37 1011.0 - 0.4 - - - - - - -
04/08:00pm 12.7 WNW 28 41 1010.9 - 0.4 - - - - - - -
04/07:51pm 13.9 NW 27 39 1010.9 - 0.4 - - - - - - -
04/07:30pm 13.9 NW 25 31 1010.8 - 0.4 - - - - - - -
04/07:00pm 14.1 NW 24 32 1010.6 - 0.0 - - - - - - -
04/06:30pm 13.9 NW 25 35 1010.4 - 0.0 - - - - - - -
04/06:26pm 13.5 NW 23 35 1010.4 - 0.0 - - - - - - -
04/06:00pm 13.0 NW 24 31 1010.2 - 0.0 - - - - - - -
04/05:32pm 13.6 NW 23 33 1010.0 - 0.0 - - - - - - -
04/05:30pm 13.6 NW 23 31 1010.0 - 0.0 - - - - - - -
04/05:00pm 13.5 NW 21 31 1009.8 - 0.0 - - - - - - -
04/04:30pm 13.6 NW 22 32 1009.7 - 0.0 - - - - - - -
04/04:00pm 13.9 NW 21 28 1009.7 - 0.0 - - - - - - -
04/03:30pm 13.9 NW 25 33 1009.7 - 0.0 - - - - - - -
04/03:12pm 14.9 WNW 21 32 1009.5 - 0.0 - - - - - - -
04/03:00pm 14.7 WNW 22 28 1009.5 - 0.0 - - - - - - -
04/02:30pm 14.7 WNW 22 29 1009.3 - 0.0 - - - - - - -
04/02:00pm 14.3 WNW 21 28 1009.5 - 0.0 - - - - - - -
04/01:30pm 14.4 WNW 25 32 1009.6 - 0.0 - - - - - - -
04/01:00pm 13.9 WNW 22 27 1009.7 - 0.0 - - - - - - -
04/12:30pm 12.6 WNW 22 32 1010.1 - 0.0 - - - - - - -
04/12:26pm 12.8 WNW 21 32 1010.1 - 0.0 - - - - - - -
04/12:00pm 13.7 WNW 20 25 1010.2 - 0.0 - - - - - - -
04/11:47am 14.1 WNW 19 29 1010.3 - 0.0 - - - - - - -
04/11:30am 13.7 WNW 20 26 1010.5 - 0.0 - - - - - - -
04/11:02am 12.1 W 21 31 1010.3 - 0.0 - - - - - - -
04/11:00am 12.6 W 22 31 1010.3 - 0.0 - - - - - - -
04/10:58am 13.0 W 21 31 1010.3 - 0.0 - - - - - - -
04/10:30am 14.2 WNW 20 26 1010.2 - 0.0 - - - - - - -
04/10:00am 12.8 W 19 26 1010.2 - 0.0 - - - - - - -
04/09:30am 12.8 WNW 19 24 1010.1 - 0.0 - - - - - - -
04/09:17am 12.5 WNW 20 30 1010.0 - 0.0 - - - - - - -
04/09:00am 12.6 W 18 26 1009.9 - 11.2 - - - - - - -
04/08:30am 12.1 W 19 29 1009.6 - 11.2 - - - - - - -
04/08:00am 11.9 W 19 29 1009.2 - 11.2 - - - - - - -
04/07:31am 11.5 W 18 32 1008.6 - 11.2 - - - - - - -
04/07:30am 11.6 W 18 25 1008.6 - 11.2 - - - - - - -
04/07:00am 11.5 W 21 32 1007.8 - 11.2 - - - - - - -
04/06:30am 11.6 W 20 30 1007.3 - 11.2 - - - - - - -
04/06:00am 11.6 W 21 32 1006.9 - 11.2 - - - - - - -
04/05:30am 11.7 W 22 32 1006.5 - 11.2 - - - - - - -
04/05:10am 11.6 W 22 32 1006.1 - 11.2 - - - - - - -
04/05:00am 11.6 W 23 32 1006.0 - 11.2 - - - - - - -
04/04:30am 10.7 W 19 38 1005.5 - 11.2 - - - - - - -
04/04:07am 11.0 W 19 29 1005.2 - 11.2 - - - - - - -
04/04:00am 11.0 W 20 29 1005.1 - 11.2 - - - - - - -
04/03:30am 10.7 W 23 35 1004.6 - 11.2 - - - - - - -
04/03:00am 11.2 W 24 34 1004.1 - 11.2 - - - - - - -
04/02:30am 11.3 W 26 37 1003.8 - 11.2 - - - - - - -
04/02:25am 11.1 W 25 37 1003.8 - 11.2 - - - - - - -
04/02:06am 10.7 W 17 27 1003.6 - 11.2 - - - - - - -
04/02:00am 10.3 W 16 26 1003.4 - 11.2 - - - - - - -
04/01:30am 8.6 W 27 45 1002.8 - 11.0 - - - - - - -
04/01:27am 8.5 W 24 45 1002.7 - 10.4 - - - - - - -
04/01:00am 11.1 W 22 32 1002.6 - 9.2 - - - - - - -
04/12:30am 11.1 W 23 35 1002.2 - 9.2 - - - - - - -
04/12:00am 9.6 WSW 25 47 1002.1 - 9.2 Rain - - - - - -
 
Date/Time
EST
Temp

°C
Wind Pressure Rain
since 9am
mm
Weather Cloud Vis
km
Sea
Height
m
Swell
Dir
 
Speed
knots
Gust
knots
hPa Trend Height
m
Period
s
Dir
03/11:30pm 11.6 W 27 40 1001.4 - 9.0 - - - - - - -

Other Formats:

Comma delimited format used in spreadsheet applications
http://www.bom.gov.au/fwo/IDV60701/IDV60701.95954.axf

JavaScript Object Notation format (JSON) in row-major order
http://www.bom.gov.au/fwo/IDV60701/IDV60701.95954.json